sensor_id;sensor_type;location;lat;lon;timestamp;pressure;altitude;pressure_sealevel;temperature;humidity
46347;BME280;32057;47.830;19.046;2024-02-26T00:01:48;99414.69;;;8.96;100.00
46347;BME280;32057;47.830;19.046;2024-02-26T00:04:13;99417.38;;;9.01;100.00
46347;BME280;32057;47.830;19.046;2024-02-26T00:06:39;99413.00;;;8.98;100.00
46347;BME280;32057;47.830;19.046;2024-02-26T00:09:07;99411.28;;;8.97;100.00
46347;BME280;32057;47.830;19.046;2024-02-26T00:11:33;99406.09;;;8.99;100.00
46347;BME280;32057;47.830;19.046;2024-02-26T00:13:59;99413.91;;;9.01;100.00
46347;BME280;32057;47.830;19.046;2024-02-26T00:16:24;99406.13;;;9.01;100.00
46347;BME280;32057;47.830;19.046;2024-02-26T00:18:49;99407.84;;;9.00;100.00
46347;BME280;32057;47.830;19.046;2024-02-26T00:21:15;99404.44;;;9.03;100.00
46347;BME280;32057;47.830;19.046;2024-02-26T00:23:40;99406.16;;;9.04;100.00
46347;BME280;32057;47.830;19.046;2024-02-26T00:26:06;99400.97;;;9.04;100.00
46347;BME280;32057;47.830;19.046;2024-02-26T00:28:31;99395.81;;;9.07;100.00
46347;BME280;32057;47.830;19.046;2024-02-26T00:30:56;99398.41;;;9.07;100.00
46347;BME280;32057;47.830;19.046;2024-02-26T00:33:22;99395.81;;;9.07;100.00
46347;BME280;32057;47.830;19.046;2024-02-26T00:35:48;99398.41;;;9.07;100.00
46347;BME280;32057;47.830;19.046;2024-02-26T00:38:14;99397.53;;;9.08;100.00
46347;BME280;32057;47.830;19.046;2024-02-26T00:40:40;99397.59;;;9.11;100.00
46347;BME280;32057;47.830;19.046;2024-02-26T00:43:06;99395.88;;;9.13;100.00
46347;BME280;32057;47.830;19.046;2024-02-26T00:45:31;99395.91;;;9.16;100.00
46347;BME280;32057;47.830;19.046;2024-02-26T00:47:57;99399.38;;;9.18;100.00
46347;BME280;32057;47.830;19.046;2024-02-26T00:50:23;99400.28;;;9.20;100.00
46347;BME280;32057;47.830;19.046;2024-02-26T00:52:48;99394.19;;;9.15;100.00
46347;BME280;32057;47.830;19.046;2024-02-26T00:55:13;99391.59;;;9.15;100.00
46347;BME280;32057;47.830;19.046;2024-02-26T00:57:39;99390.72;;;9.16;100.00
46347;BME280;32057;47.830;19.046;2024-02-26T01:00:06;99390.72;;;9.17;100.00
46347;BME280;32057;47.830;19.046;2024-02-26T01:02:34;99385.53;;;9.17;100.00
46347;BME280;32057;47.830;19.046;2024-02-26T01:04:59;99382.94;;;9.17;100.00
46347;BME280;32057;47.830;19.046;2024-02-26T01:07:25;99382.94;;;9.17;100.00
46347;BME280;32057;47.830;19.046;2024-02-26T01:09:50;99375.13;;;9.16;100.00
46347;BME280;32057;47.830;19.046;2024-02-26T01:12:15;99380.31;;;9.16;100.00
46347;BME280;32057;47.830;19.046;2024-02-26T01:14:41;99363.88;;;9.14;100.00
46347;BME280;32057;47.830;19.046;2024-02-26T01:17:06;99369.09;;;9.15;100.00
46347;BME280;32057;47.830;19.046;2024-02-26T01:19:31;99375.13;;;9.16;100.00
46347;BME280;32057;47.830;19.046;2024-02-26T01:21:57;99369.94;;;9.16;100.00
46347;BME280;32057;47.830;19.046;2024-02-26T01:24:23;99363.88;;;9.15;100.00
46347;BME280;32057;47.830;19.046;2024-02-26T01:26:52;99369.09;;;9.17;100.00
46347;BME280;32057;47.830;19.046;2024-02-26T01:29:18;99366.47;;;9.14;100.00
46347;BME280;32057;47.830;19.046;2024-02-26T01:31:43;99358.66;;;9.12;100.00
46347;BME280;32057;47.830;19.046;2024-02-26T01:34:09;99366.44;;;9.12;100.00
46347;BME280;32057;47.830;19.046;2024-02-26T01:36:34;99366.47;;;9.14;100.00
46347;BME280;32057;47.830;19.046;2024-02-26T01:38:59;99356.06;;;9.12;100.00
46347;BME280;32057;47.830;19.046;2024-02-26T01:41:25;99355.22;;;9.13;100.00
46347;BME280;32057;47.830;19.046;2024-02-26T01:43:50;99366.50;;;9.18;100.00
46347;BME280;32057;47.830;19.046;2024-02-26T01:46:16;99370.00;;;9.19;100.00
46347;BME280;32057;47.830;19.046;2024-02-26T01:48:42;99361.28;;;9.15;100.00
46347;BME280;32057;47.830;19.046;2024-02-26T01:51:10;99370.81;;;9.18;100.00
46347;BME280;32057;47.830;19.046;2024-02-26T01:53:37;99375.19;;;9.19;100.00
46347;BME280;32057;47.830;19.046;2024-02-26T01:56:03;99369.09;;;9.18;100.00
46347;BME280;32057;47.830;19.046;2024-02-26T01:58:29;99363.03;;;9.15;100.00
46347;BME280;32057;47.830;19.046;2024-02-26T02:00:55;99369.94;;;9.13;100.00
46347;BME280;32057;47.830;19.046;2024-02-26T02:03:21;99374.22;;;9.12;100.00
46347;BME280;32057;47.830;19.046;2024-02-26T02:05:47;99375.97;;;9.13;100.00
46347;BME280;32057;47.830;19.046;2024-02-26T02:08:12;99373.38;;;9.12;100.00
46347;BME280;32057;47.830;19.046;2024-02-26T02:10:39;99368.16;;;9.10;100.00
46347;BME280;32057;47.830;19.046;2024-02-26T02:13:06;99370.75;;;9.09;100.00
46347;BME280;32057;47.830;19.046;2024-02-26T02:15:31;99374.19;;;9.08;100.00
46347;BME280;32057;47.830;19.046;2024-02-26T02:17:56;99373.31;;;9.06;100.00
46347;BME280;32057;47.830;19.046;2024-02-26T02:20:31;99371.56;;;9.06;100.00
46347;BME280;32057;47.830;19.046;2024-02-26T02:22:56;99374.16;;;9.05;100.00
46347;BME280;32057;47.830;19.046;2024-02-26T02:25:22;99375.06;;;9.07;100.00
46347;BME280;32057;47.830;19.046;2024-02-26T02:27:47;99379.38;;;9.08;100.00
46347;BME280;32057;47.830;19.046;2024-02-26T02:30:13;99375.94;;;9.09;100.00
46347;BME280;32057;47.830;19.046;2024-02-26T02:32:40;99369.88;;;9.07;100.00
46347;BME280;32057;47.830;19.046;2024-02-26T02:35:07;99375.06;;;9.07;100.00
46347;BME280;32057;47.830;19.046;2024-02-26T02:37:32;99369.84;;;9.08;100.00
46347;BME280;32057;47.830;19.046;2024-02-26T02:39:57;99375.94;;;9.09;100.00
46347;BME280;32057;47.830;19.046;2024-02-26T02:42:23;99367.28;;;9.10;100.00
46347;BME280;32057;47.830;19.046;2024-02-26T02:44:49;99365.56;;;9.12;100.00
46347;BME280;32057;47.830;19.046;2024-02-26T02:47:14;99361.25;;;9.11;100.00
46347;BME280;32057;47.830;19.046;2024-02-26T02:49:40;99356.03;;;9.08;100.00
46347;BME280;32057;47.830;19.046;2024-02-26T02:52:05;99356.91;;;9.07;100.00
46347;BME280;32057;47.830;19.046;2024-02-26T02:54:30;99348.22;;;9.05;100.00
46347;BME280;32057;47.830;19.046;2024-02-26T02:56:56;99351.63;;;9.01;100.00
46347;BME280;32057;47.830;19.046;2024-02-26T02:59:21;99359.44;;;9.04;100.00
46347;BME280;32057;47.830;19.046;2024-02-26T03:01:46;99356.84;;;9.04;100.00
46347;BME280;32057;47.830;19.046;2024-02-26T03:04:12;99339.53;;;9.01;100.00
46347;BME280;32057;47.830;19.046;2024-02-26T03:06:37;99349.06;;;9.04;100.00
46347;BME280;32057;47.830;19.046;2024-02-26T03:09:02;99344.72;;;9.04;100.00
46347;BME280;32057;47.830;19.046;2024-02-26T03:11:28;99349.06;;;9.04;100.00
46347;BME280;32057;47.830;19.046;2024-02-26T03:13:53;99347.31;;;9.04;100.00
46347;BME280;32057;47.830;19.046;2024-02-26T03:16:19;99338.66;;;9.02;100.00
46347;BME280;32057;47.830;19.046;2024-02-26T03:18:44;99342.16;;;9.03;100.00
46347;BME280;32057;47.830;19.046;2024-02-26T03:21:09;99345.56;;;9.02;100.00
46347;BME280;32057;47.830;19.046;2024-02-26T03:23:34;99348.16;;;9.02;100.00
46347;BME280;32057;47.830;19.046;2024-02-26T03:26:06;99348.16;;;9.02;100.00
46347;BME280;32057;47.830;19.046;2024-02-26T03:28:31;99349.91;;;9.01;100.00
46347;BME280;32057;47.830;19.046;2024-02-26T03:30:59;99346.44;;;9.01;100.00
46347;BME280;32057;47.830;19.046;2024-02-26T03:33:24;99347.34;;;9.03;100.00
46347;BME280;32057;47.830;19.046;2024-02-26T03:35:50;99337.81;;;9.03;100.00
46347;BME280;32057;47.830;19.046;2024-02-26T03:38:15;99354.22;;;9.02;100.00
46347;BME280;32057;47.830;19.046;2024-02-26T03:40:40;99346.44;;;9.02;100.00
46347;BME280;32057;47.830;19.046;2024-02-26T03:43:06;99355.09;;;9.04;100.00
46347;BME280;32057;47.830;19.046;2024-02-26T03:45:32;99349.09;;;9.07;100.00
46347;BME280;32057;47.830;19.046;2024-02-26T03:47:58;99347.34;;;9.06;100.00
46347;BME280;32057;47.830;19.046;2024-02-26T03:50:23;99338.72;;;9.07;100.00
46347;BME280;32057;47.830;19.046;2024-02-26T03:52:49;99330.06;;;9.05;100.00
46347;BME280;32057;47.830;19.046;2024-02-26T03:55:14;99336.97;;;9.03;100.00
46347;BME280;32057;47.830;19.046;2024-02-26T03:57:39;99334.34;;;9.01;100.00
46347;BME280;32057;47.830;19.046;2024-02-26T04:00:06;99337.78;;;9.02;100.00
46347;BME280;32057;47.830;19.046;2024-02-26T04:02:31;99347.31;;;9.04;100.00
46347;BME280;32057;47.830;19.046;2024-02-26T04:04:57;99343.91;;;9.07;100.00
46347;BME280;32057;47.830;19.046;2024-02-26T04:07:22;99340.50;;;9.14;100.00
46347;BME280;32057;47.830;19.046;2024-02-26T04:09:47;99339.69;;;9.18;100.00
46347;BME280;32057;47.830;19.046;2024-02-26T04:12:13;99344.06;;;9.21;100.00
46347;BME280;32057;47.830;19.046;2024-02-26T04:14:38;99344.03;;;9.22;100.00
46347;BME280;32057;47.830;19.046;2024-02-26T04:17:04;99340.63;;;9.25;100.00
46347;BME280;32057;47.830;19.046;2024-02-26T04:19:29;99338.94;;;9.27;100.00
46347;BME280;32057;47.830;19.046;2024-02-26T04:21:54;99341.53;;;9.27;100.00
46347;BME280;32057;47.830;19.046;2024-02-26T04:24:20;99343.28;;;9.32;100.00
46347;BME280;32057;47.830;19.046;2024-02-26T04:26:45;99352.78;;;9.27;100.00
46347;BME280;32057;47.830;19.046;2024-02-26T04:29:10;99345.88;;;9.29;100.00
46347;BME280;32057;47.830;19.046;2024-02-26T04:31:37;99347.59;;;9.32;100.00
46347;BME280;32057;47.830;19.046;2024-02-26T04:34:02;99342.41;;;9.30;100.00
46347;BME280;32057;47.830;19.046;2024-02-26T04:36:28;99340.66;;;9.29;100.00
46347;BME280;32057;47.830;19.046;2024-02-26T04:38:53;99344.16;;;9.31;100.00
46347;BME280;32057;47.830;19.046;2024-02-26T04:41:21;99338.91;;;9.28;100.00
46347;BME280;32057;47.830;19.046;2024-02-26T04:43:47;99344.97;;;9.26;100.00
46347;BME280;32057;47.830;19.046;2024-02-26T04:46:12;99348.44;;;9.25;100.00
46347;BME280;32057;47.830;19.046;2024-02-26T04:48:38;99334.56;;;9.24;100.00
46347;BME280;32057;47.830;19.046;2024-02-26T04:51:04;99335.34;;;9.18;100.00
46347;BME280;32057;47.830;19.046;2024-02-26T04:53:29;99333.59;;;9.14;100.00
46347;BME280;32057;47.830;19.046;2024-02-26T04:55:55;99326.66;;;9.12;100.00
46347;BME280;32057;47.830;19.046;2024-02-26T04:58:20;99326.66;;;9.12;100.00
46347;BME280;32057;47.830;19.046;2024-02-26T05:00:46;99325.75;;;9.08;100.00
46347;BME280;32057;47.830;19.046;2024-02-26T05:03:11;99331.81;;;9.10;100.00
46347;BME280;32057;47.830;19.046;2024-02-26T05:05:41;99330.94;;;9.10;100.00
46347;BME280;32057;47.830;19.046;2024-02-26T05:08:06;99330.13;;;9.11;100.00
46347;BME280;32057;47.830;19.046;2024-02-26T05:10:33;99325.75;;;9.07;100.00
46347;BME280;32057;47.830;19.046;2024-02-26T05:12:58;99323.97;;;9.04;100.00
46347;BME280;32057;47.830;19.046;2024-02-26T05:15:23;99318.78;;;9.03;100.00
46347;BME280;32057;47.830;19.046;2024-02-26T05:17:48;99327.41;;;9.02;100.00
46347;BME280;32057;47.830;19.046;2024-02-26T05:20:14;99328.28;;;9.01;100.00
46347;BME280;32057;47.830;19.046;2024-02-26T05:22:39;99329.97;;;8.98;100.00
46347;BME280;32057;47.830;19.046;2024-02-26T05:25:05;99329.09;;;8.98;100.00
46347;BME280;32057;47.830;19.046;2024-02-26T05:27:30;99331.66;;;8.96;100.00
46347;BME280;32057;47.830;19.046;2024-02-26T05:29:55;99329.94;;;8.95;100.00
46347;BME280;32057;47.830;19.046;2024-02-26T05:32:21;99330.84;;;8.99;100.00
46347;BME280;32057;47.830;19.046;2024-02-26T05:34:47;99330.00;;;9.02;100.00
46347;BME280;32057;47.830;19.046;2024-02-26T05:37:12;99331.78;;;9.06;100.00
46347;BME280;32057;47.830;19.046;2024-02-26T05:39:37;99326.63;;;9.09;100.00
46347;BME280;32057;47.830;19.046;2024-02-26T05:42:04;99328.34;;;9.07;100.00
46347;BME280;32057;47.830;19.046;2024-02-26T05:44:30;99330.94;;;9.08;100.00
46347;BME280;32057;47.830;19.046;2024-02-26T05:46:55;99332.72;;;9.14;100.00
46347;BME280;32057;47.830;19.046;2024-02-26T05:49:22;99335.34;;;9.18;100.00
46347;BME280;32057;47.830;19.046;2024-02-26T05:51:47;99332.81;;;9.23;100.00
46347;BME280;32057;47.830;19.046;2024-02-26T05:54:12;99331.13;;;9.27;100.00
46347;BME280;32057;47.830;19.046;2024-02-26T05:56:39;99338.09;;;9.31;100.00
46347;BME280;32057;47.830;19.046;2024-02-26T05:59:04;99337.25;;;9.33;100.00
46347;BME280;32057;47.830;19.046;2024-02-26T06:01:30;99335.53;;;9.35;100.00
46347;BME280;32057;47.830;19.046;2024-02-26T06:03:56;99328.63;;;9.37;100.00
46347;BME280;32057;47.830;19.046;2024-02-26T06:06:21;99332.06;;;9.36;100.00
46347;BME280;32057;47.830;19.046;2024-02-26T06:08:48;99335.53;;;9.35;100.00
46347;BME280;32057;47.830;19.046;2024-02-26T06:11:14;99336.41;;;9.36;100.00
46347;BME280;32057;47.830;19.046;2024-02-26T06:13:39;99334.69;;;9.38;100.00
46347;BME280;32057;47.830;19.046;2024-02-26T06:16:05;99333.81;;;9.37;100.00
46347;BME280;32057;47.830;19.046;2024-02-26T06:18:30;99342.50;;;9.40;100.00
46347;BME280;32057;47.830;19.046;2024-02-26T06:20:55;99341.63;;;9.42;100.00
46347;BME280;32057;47.830;19.046;2024-02-26T06:23:21;99348.59;;;9.43;100.00
46347;BME280;32057;47.830;19.046;2024-02-26T06:25:46;99348.59;;;9.43;100.00
46347;BME280;32057;47.830;19.046;2024-02-26T06:28:13;99352.91;;;9.43;100.00
46347;BME280;32057;47.830;19.046;2024-02-26T06:30:38;99358.94;;;9.40;100.00
46347;BME280;32057;47.830;19.046;2024-02-26T06:33:04;99356.34;;;9.42;100.00
46347;BME280;32057;47.830;19.046;2024-02-26T06:35:29;99365.03;;;9.41;100.00
46347;BME280;32057;47.830;19.046;2024-02-26T06:37:54;99366.75;;;9.42;100.00
46347;BME280;32057;47.830;19.046;2024-02-26T06:40:20;99367.59;;;9.42;100.00
46347;BME280;32057;47.830;19.046;2024-02-26T06:42:48;99371.97;;;9.45;100.00
46347;BME280;32057;47.830;19.046;2024-02-26T06:45:15;99378.03;;;9.48;100.00
46347;BME280;32057;47.830;19.046;2024-02-26T06:47:40;99377.22;;;9.51;100.00
46347;BME280;32057;47.830;19.046;2024-02-26T06:50:06;99375.50;;;9.53;100.00
46347;BME280;32057;47.830;19.046;2024-02-26T06:52:32;99383.28;;;9.51;100.00
46347;BME280;32057;47.830;19.046;2024-02-26T06:54:57;99374.63;;;9.52;100.00
46347;BME280;32057;47.830;19.046;2024-02-26T06:57:22;99378.09;;;9.51;100.00
46347;BME280;32057;47.830;19.046;2024-02-26T06:59:48;99368.16;;;9.12;100.00
46347;BME280;32057;47.830;19.046;2024-02-26T07:02:14;99371.75;;;9.23;100.00
46347;BME280;32057;47.830;19.046;2024-02-26T07:04:39;99366.63;;;9.29;100.00
46347;BME280;32057;47.830;19.046;2024-02-26T07:07:05;99377.09;;;9.37;100.00
46347;BME280;32057;47.830;19.046;2024-02-26T07:09:31;99365.81;;;9.35;100.00
46347;BME280;32057;47.830;19.046;2024-02-26T07:11:56;99360.66;;;9.38;100.00
46347;BME280;32057;47.830;19.046;2024-02-26T07:14:22;99361.56;;;9.43;100.00
46347;BME280;32057;47.830;19.046;2024-02-26T07:16:47;99362.47;;;9.48;100.00
46347;BME280;32057;47.830;19.046;2024-02-26T07:19:15;99366.84;;;9.54;100.00
46347;BME280;32057;47.830;19.046;2024-02-26T07:21:43;99365.19;;;9.59;100.00
46347;BME280;32057;47.830;19.046;2024-02-26T07:24:09;99364.31;;;9.60;100.00
46347;BME280;32057;47.830;19.046;2024-02-26T07:26:34;99370.38;;;9.62;100.00
46347;BME280;32057;47.830;19.046;2024-02-26T07:28:59;99379.06;;;9.64;100.00
46347;BME280;32057;47.830;19.046;2024-02-26T07:31:25;99375.63;;;9.68;100.00
46347;BME280;32057;47.830;19.046;2024-02-26T07:33:51;99378.16;;;9.59;100.00
46347;BME280;32057;47.830;19.046;2024-02-26T07:36:16;99375.63;;;9.67;100.00
46347;BME280;32057;47.830;19.046;2024-02-26T07:38:42;99367.81;;;9.64;100.00
46347;BME280;32057;47.830;19.046;2024-02-26T07:41:07;99369.53;;;9.63;100.00
46347;BME280;32057;47.830;19.046;2024-02-26T07:43:32;99365.13;;;9.56;100.00
46347;BME280;32057;47.830;19.046;2024-02-26T07:45:58;99370.38;;;9.59;100.00
46347;BME280;32057;47.830;19.046;2024-02-26T07:48:23;99370.44;;;9.65;100.00
46347;BME280;32057;47.830;19.046;2024-02-26T07:50:48;99367.00;;;9.69;100.00
46347;BME280;32057;47.830;19.046;2024-02-26T07:53:14;99373.06;;;9.74;100.00
46347;BME280;32057;47.830;19.046;2024-02-26T07:55:39;99377.47;;;9.79;100.00
46347;BME280;32057;47.830;19.046;2024-02-26T07:58:04;99378.31;;;9.77;100.00
46347;BME280;32057;47.830;19.046;2024-02-26T08:00:30;99384.41;;;9.80;100.00
46347;BME280;32057;47.830;19.046;2024-02-26T08:02:55;99393.94;;;9.82;100.00
46347;BME280;32057;47.830;19.046;2024-02-26T08:05:20;99386.19;;;9.90;100.00
46347;BME280;32057;47.830;19.046;2024-02-26T08:07:46;99388.00;;;9.97;100.00
46347;BME280;32057;47.830;19.046;2024-02-26T08:10:11;99391.50;;;10.01;100.00
46347;BME280;32057;47.830;19.046;2024-02-26T08:12:36;99396.69;;;10.02;100.00
46347;BME280;32057;47.830;19.046;2024-02-26T08:15:02;99401.00;;;10.00;100.00
46347;BME280;32057;47.830;19.046;2024-02-26T08:17:28;99400.13;;;9.98;100.00
46347;BME280;32057;47.830;19.046;2024-02-26T08:19:53;99398.41;;;9.97;100.00
46347;BME280;32057;47.830;19.046;2024-02-26T08:22:19;99403.63;;;10.02;100.00
46347;BME280;32057;47.830;19.046;2024-02-26T08:24:44;99403.59;;;10.00;100.00
46347;BME280;32057;47.830;19.046;2024-02-26T08:27:13;99400.13;;;9.98;100.00
46347;BME280;32057;47.830;19.046;2024-02-26T08:29:38;99394.97;;;10.01;100.00
46347;BME280;32057;47.830;19.046;2024-02-26T08:32:03;99391.47;;;9.99;100.00
46347;BME280;32057;47.830;19.046;2024-02-26T08:34:29;99394.97;;;10.01;100.00
46347;BME280;32057;47.830;19.046;2024-02-26T08:36:54;99395.84;;;10.03;100.00
46347;BME280;32057;47.830;19.046;2024-02-26T08:39:19;99403.66;;;10.06;100.00
46347;BME280;32057;47.830;19.046;2024-02-26T08:41:45;99393.28;;;10.09;100.00
46347;BME280;32057;47.830;19.046;2024-02-26T08:44:11;99396.75;;;10.11;100.00
46347;BME280;32057;47.830;19.046;2024-02-26T08:46:36;99394.19;;;10.16;100.00
46347;BME280;32057;47.830;19.046;2024-02-26T08:49:02;99394.22;;;10.19;100.00
46347;BME280;32057;47.830;19.046;2024-02-26T08:51:27;99398.56;;;10.22;100.00
46347;BME280;32057;47.830;19.046;2024-02-26T08:53:52;99396.84;;;10.21;100.00
46347;BME280;32057;47.830;19.046;2024-02-26T08:56:19;99405.53;;;10.23;100.00
46347;BME280;32057;47.830;19.046;2024-02-26T08:58:44;99401.19;;;10.26;100.00
46347;BME280;32057;47.830;19.046;2024-02-26T09:01:11;99401.22;;;10.29;100.00
46347;BME280;32057;47.830;19.046;2024-02-26T09:03:36;99401.28;;;10.32;100.00
46347;BME280;32057;47.830;19.046;2024-02-26T09:06:02;99395.25;;;10.41;100.00
46347;BME280;32057;47.830;19.046;2024-02-26T09:08:27;99402.22;;;10.48;100.00
46347;BME280;32057;47.830;19.046;2024-02-26T09:10:53;99402.25;;;10.51;100.00
46347;BME280;32057;47.830;19.046;2024-02-26T09:13:18;99402.28;;;10.54;100.00
46347;BME280;32057;47.830;19.046;2024-02-26T09:15:43;99410.06;;;10.56;100.00
46347;BME280;32057;47.830;19.046;2024-02-26T09:18:09;99402.28;;;10.57;100.00
46347;BME280;32057;47.830;19.046;2024-02-26T09:20:35;99405.78;;;10.61;100.00
46347;BME280;32057;47.830;19.046;2024-02-26T09:23:00;99403.22;;;10.70;100.00
46347;BME280;32057;47.830;19.046;2024-02-26T09:25:26;99410.19;;;10.74;100.00
46347;BME280;32057;47.830;19.046;2024-02-26T09:27:51;99409.28;;;10.74;100.00
46347;BME280;32057;47.830;19.046;2024-02-26T09:30:17;99408.44;;;10.78;100.00
46347;BME280;32057;47.830;19.046;2024-02-26T09:32:46;99417.13;;;10.80;100.00
46347;BME280;32057;47.830;19.046;2024-02-26T09:35:11;99409.34;;;10.86;100.00
46347;BME280;32057;47.830;19.046;2024-02-26T09:37:38;99411.09;;;10.87;100.00
46347;BME280;32057;47.830;19.046;2024-02-26T09:40:04;99412.03;;;10.99;100.00
46347;BME280;32057;47.830;19.046;2024-02-26T09:42:32;99412.88;;;10.94;100.00
46347;BME280;32057;47.830;19.046;2024-02-26T09:45:01;99416.31;;;10.92;100.00
46347;BME280;32057;47.830;19.046;2024-02-26T09:47:31;99413.72;;;10.87;100.00
46347;BME280;32057;47.830;19.046;2024-02-26T09:49:58;99418.03;;;10.85;100.00
46347;BME280;32057;47.830;19.046;2024-02-26T09:52:25;99407.63;;;10.85;100.00
46347;BME280;32057;47.830;19.046;2024-02-26T09:54:51;99410.25;;;10.87;100.00
46347;BME280;32057;47.830;19.046;2024-02-26T09:57:16;99417.19;;;10.91;100.00
46347;BME280;32057;47.830;19.046;2024-02-26T09:59:43;99412.88;;;10.94;100.00
46347;BME280;32057;47.830;19.046;2024-02-26T10:02:12;99418.06;;;10.96;100.00
46347;BME280;32057;47.830;19.046;2024-02-26T10:04:39;99411.16;;;10.96;100.00
46347;BME280;32057;47.830;19.046;2024-02-26T10:07:10;99404.22;;;10.97;100.00
46347;BME280;32057;47.830;19.046;2024-02-26T10:09:35;99405.94;;;11.01;100.00
46347;BME280;32057;47.830;19.046;2024-02-26T10:12:01;99406.88;;;11.12;100.00
46347;BME280;32057;47.830;19.046;2024-02-26T10:14:27;99400.78;;;11.15;100.00
46347;BME280;32057;47.830;19.046;2024-02-26T10:16:52;99401.66;;;11.22;100.00
46347;BME280;32057;47.830;19.046;2024-02-26T10:19:25;99402.59;;;11.34;100.00
46347;BME280;32057;47.830;19.046;2024-02-26T10:21:56;99406.09;;;11.49;100.00
46347;BME280;32057;47.830;19.046;2024-02-26T10:24:22;99407.81;;;11.56;100.00
46347;BME280;32057;47.830;19.046;2024-02-26T10:26:47;99406.13;;;11.64;100.00
46347;BME280;32057;47.830;19.046;2024-02-26T10:29:12;99404.38;;;11.72;100.00
46347;BME280;32057;47.830;19.046;2024-02-26T10:31:42;99397.41;;;11.76;100.00
46347;BME280;32057;47.830;19.046;2024-02-26T10:34:08;99400.91;;;11.86;100.00
46347;BME280;32057;47.830;19.046;2024-02-26T10:36:34;99407.88;;;11.90;100.00
46347;BME280;32057;47.830;19.046;2024-02-26T10:39:02;99407.88;;;11.90;100.00
46347;BME280;32057;47.830;19.046;2024-02-26T10:41:28;99401.81;;;11.97;100.00
46347;BME280;32057;47.830;19.046;2024-02-26T10:43:54;99396.59;;;11.95;100.00
46347;BME280;32057;47.830;19.046;2024-02-26T10:46:19;99400.06;;;11.99;100.00
46347;BME280;32057;47.830;19.046;2024-02-26T10:48:50;99407.03;;;12.06;100.00
46347;BME280;32057;47.830;19.046;2024-02-26T10:51:20;99390.50;;;12.10;100.00
46347;BME280;32057;47.830;19.046;2024-02-26T10:53:47;99383.53;;;12.17;100.00
46347;BME280;32057;47.830;19.046;2024-02-26T10:56:15;99385.28;;;12.23;100.00
46347;BME280;32057;47.830;19.046;2024-02-26T10:58:45;99391.34;;;12.29;100.00
46347;BME280;32057;47.830;19.046;2024-02-26T11:01:12;99380.03;;;12.29;100.00
46347;BME280;32057;47.830;19.046;2024-02-26T11:03:38;99381.78;;;12.33;100.00
46347;BME280;32057;47.830;19.046;2024-02-26T11:06:04;99370.44;;;12.37;100.00
46347;BME280;32057;47.830;19.046;2024-02-26T11:08:30;99371.31;;;12.41;100.00
46347;BME280;32057;47.830;19.046;2024-02-26T11:10:57;99374.78;;;12.47;100.00
46347;BME280;32057;47.830;19.046;2024-02-26T11:13:27;99385.22;;;12.50;100.00
46347;BME280;32057;47.830;19.046;2024-02-26T11:15:56;99378.22;;;12.59;100.00
46347;BME280;32057;47.830;19.046;2024-02-26T11:18:23;99379.94;;;12.66;100.00
46347;BME280;32057;47.830;19.046;2024-02-26T11:20:51;99379.94;;;12.66;100.00
46347;BME280;32057;47.830;19.046;2024-02-26T11:23:17;99381.66;;;12.73;100.00
46347;BME280;32057;47.830;19.046;2024-02-26T11:25:42;99378.16;;;12.79;100.00
46347;BME280;32057;47.830;19.046;2024-02-26T11:28:11;99380.75;;;12.85;100.00
46347;BME280;32057;47.830;19.046;2024-02-26T11:30:42;99388.53;;;12.89;100.00
46347;BME280;32057;47.830;19.046;2024-02-26T11:33:10;99385.94;;;12.91;100.00
46347;BME280;32057;47.830;19.046;2024-02-26T11:35:38;99381.56;;;12.94;100.00
46347;BME280;32057;47.830;19.046;2024-02-26T11:38:04;99378.94;;;12.98;100.00
46347;BME280;32057;47.830;19.046;2024-02-26T11:40:32;99372.81;;;13.02;100.00
46347;BME280;32057;47.830;19.046;2024-02-26T11:42:57;99375.41;;;13.09;100.00
46347;BME280;32057;47.830;19.046;2024-02-26T11:48:04;99371.00;;;13.19;100.00
46347;BME280;32057;47.830;19.046;2024-02-26T11:50:34;99368.34;;;13.30;100.00
46347;BME280;32057;47.830;19.046;2024-02-26T11:53:22;99366.56;;;13.33;100.00
46347;BME280;32057;47.830;19.046;2024-02-26T11:56:11;99378.78;;;13.34;100.00
46347;BME280;32057;47.830;19.046;2024-02-26T11:58:34;99369.19;;;13.37;100.00
46347;BME280;32057;47.830;19.046;2024-02-26T12:00:59;99363.97;;;13.33;100.00
46347;BME280;32057;47.830;19.046;2024-02-26T12:03:24;99363.91;;;13.41;100.00
46347;BME280;32057;47.830;19.046;2024-02-26T12:05:51;99364.81;;;13.40;100.00
46347;BME280;32057;47.830;19.046;2024-02-26T12:08:17;99356.06;;;13.44;100.00
46347;BME280;32057;47.830;19.046;2024-02-26T12:10:45;99359.50;;;13.48;100.00
46347;BME280;32057;47.830;19.046;2024-02-26T12:13:12;99362.97;;;13.51;100.00
46347;BME280;32057;47.830;19.046;2024-02-26T12:15:58;99353.38;;;13.55;100.00
46347;BME280;32057;47.830;19.046;2024-02-26T12:18:24;99358.53;;;13.61;100.00
46347;BME280;32057;47.830;19.046;2024-02-26T12:21:00;99363.75;;;13.64;100.00
46347;BME280;32057;47.830;19.046;2024-02-26T12:23:29;99367.28;;;13.59;100.00
46347;BME280;32057;47.830;19.046;2024-02-26T12:25:59;99368.16;;;13.58;100.00
46347;BME280;32057;47.830;19.046;2024-02-26T12:28:28;99370.75;;;13.59;100.00
46347;BME280;32057;47.830;19.046;2024-02-26T12:30:54;99374.31;;;13.52;100.00
46347;BME280;32057;47.830;19.046;2024-02-26T12:33:19;99364.72;;;13.49;100.00
46347;BME280;32057;47.830;19.046;2024-02-26T12:35:45;99368.25;;;13.47;100.00
46347;BME280;32057;47.830;19.046;2024-02-26T12:38:14;99372.63;;;13.43;100.00
46347;BME280;32057;47.830;19.046;2024-02-26T12:40:40;99370.03;;;13.40;100.00
46347;BME280;32057;47.830;19.046;2024-02-26T12:43:05;99372.63;;;13.42;100.00